createdAt,value
2016-05-30T00:00:01.450Z,0
2016-05-30T00:01:01.469Z,0
2016-05-30T00:02:01.533Z,0
2016-05-30T00:03:01.443Z,0
2016-05-30T00:04:01.649Z,0
2016-05-30T00:05:01.527Z,0
2016-05-30T00:06:01.701Z,0
2016-05-30T00:07:02.250Z,0
2016-05-30T00:08:01.706Z,0
2016-05-30T00:09:01.521Z,0
2016-05-30T00:10:01.883Z,0
2016-05-30T00:11:02.011Z,0
2016-05-30T00:12:01.951Z,0
2016-05-30T00:13:01.985Z,0
2016-05-30T00:14:02.098Z,0
2016-05-30T00:15:02.131Z,0
2016-05-30T00:16:01.962Z,0
2016-05-30T00:17:02.184Z,0
2016-05-30T00:18:02.092Z,0
2016-05-30T00:19:02.267Z,0
2016-05-30T00:20:02.145Z,0
2016-05-30T00:21:02.194Z,0
2016-05-30T00:22:02.540Z,0
2016-05-30T00:23:02.262Z,0
2016-05-30T00:24:02.467Z,0
2016-05-30T00:25:02.345Z,0
2016-05-30T00:26:02.457Z,0
2016-05-30T00:27:02.460Z,0
2016-05-30T00:28:02.636Z,0
2016-05-30T00:29:02.684Z,0
2016-05-30T00:30:02.734Z,0
2016-05-30T00:31:02.799Z,0
2016-05-30T00:32:02.833Z,0
2016-05-30T00:33:02.726Z,0
2016-05-30T00:34:02.776Z,0
2016-05-30T00:35:02.935Z,0
2016-05-30T00:36:03.016Z,0
2016-05-30T00:37:03.800Z,0
2016-05-30T00:38:02.927Z,0
2016-05-30T00:39:03.023Z,0
2016-05-30T00:40:03.230Z,0
2016-05-30T00:41:03.217Z,0
2016-05-30T00:42:03.266Z,0
2016-05-30T00:43:03.301Z,0
2016-05-30T00:44:03.209Z,0
2016-05-30T00:45:03.384Z,0
2016-05-30T00:46:03.449Z,0
2016-05-30T00:47:03.327Z,0
2016-05-30T00:48:03.517Z,0
2016-05-30T00:49:03.551Z,0
2016-05-30T00:50:03.351Z,0
2016-05-30T00:51:03.368Z,0
2016-05-30T00:52:03.403Z,0
2016-05-30T00:53:03.577Z,0
2016-05-30T00:54:03.689Z,0
2016-05-30T00:55:03.676Z,0
2016-05-30T00:56:03.726Z,0
2016-05-30T00:57:03.822Z,0
2016-05-30T00:58:03.997Z,0
2016-05-30T00:59:03.812Z,0
2016-05-30T01:00:04.049Z,0
2016-05-30T01:01:04.130Z,0
2016-05-30T01:02:04.116Z,0
2016-05-30T01:03:04.010Z,0
2016-05-30T01:04:04.294Z,0
2016-05-30T01:05:04.141Z,0
2016-05-30T01:06:04.283Z,0
2016-05-30T01:07:04.224Z,0
2016-05-30T01:08:04.211Z,0
2016-05-30T01:09:04.448Z,0
2016-05-30T01:10:04.451Z,0
2016-05-30T01:11:04.359Z,0
2016-05-30T01:12:04.581Z,0
2016-05-30T01:13:04.584Z,0
2016-05-30T01:14:04.493Z,0
2016-05-30T01:15:04.511Z,0
2016-05-30T01:16:04.765Z,0
2016-05-30T01:17:04.751Z,0
2016-05-30T01:18:04.816Z,0
2016-05-30T01:19:04.725Z,0
2016-05-30T01:20:04.884Z,0
2016-05-30T01:21:04.949Z,0
2016-05-30T01:22:05.171Z,0
2016-05-30T01:23:04.876Z,0
2016-05-30T01:24:05.067Z,0
2016-05-30T01:25:05.289Z,0
2016-05-30T01:26:05.026Z,0
2016-05-30T01:27:05.184Z,0
2016-05-30T01:28:05.218Z,0
2016-05-30T01:29:05.314Z,0
2016-05-30T01:30:05.333Z,0
2016-05-30T01:31:05.195Z,0
2016-05-30T01:32:05.432Z,0
2016-05-30T01:33:05.294Z,0
2016-05-30T01:34:05.374Z,0
2016-05-30T01:35:05.534Z,0
2016-05-30T01:36:05.630Z,0
2016-05-30T01:37:06.133Z,0
2016-05-30T01:38:05.682Z,0
2016-05-30T01:39:05.685Z,0
2016-05-30T01:40:05.797Z,0
2016-05-30T01:41:05.816Z,0
2016-05-30T01:42:05.818Z,0
2016-05-30T01:43:05.743Z,0
2016-05-30T01:44:05.980Z,0
2016-05-30T01:45:05.951Z,0
2016-05-30T01:46:06.001Z,0
2016-05-30T01:47:06.081Z,0
2016-05-30T01:48:05.959Z,0
2016-05-30T01:49:06.149Z,0
2016-05-30T01:50:05.996Z,0
2016-05-30T01:51:06.248Z,0
2016-05-30T01:52:06.861Z,0
2016-05-30T01:53:06.301Z,0
2016-05-30T01:54:06.412Z,0
2016-05-30T01:55:06.431Z,0
2016-05-30T01:56:06.277Z,0
2016-05-30T01:57:06.499Z,0
2016-05-30T01:58:06.345Z,0
2016-05-30T01:59:06.442Z,0
2016-05-30T02:00:06.460Z,0
2016-05-30T02:01:06.714Z,0
2016-05-30T02:02:06.747Z,0
2016-05-30T02:03:06.733Z,0
2016-05-30T02:04:06.611Z,0
2016-05-30T02:05:06.864Z,0
2016-05-30T02:06:06.883Z,0
2016-05-30T02:07:06.792Z,0
2016-05-30T02:08:06.780Z,0
2016-05-30T02:09:06.859Z,0
2016-05-30T02:10:07.035Z,0
2016-05-30T02:11:07.068Z,0
2016-05-30T02:12:07.165Z,0
2016-05-30T02:13:06.996Z,0
2016-05-30T02:14:07.216Z,0
2016-05-30T02:15:07.251Z,0
2016-05-30T02:16:07.176Z,0
2016-05-30T02:17:07.350Z,0
2016-05-30T02:18:07.227Z,0
2016-05-30T02:19:07.465Z,0
2016-05-30T02:20:07.499Z,0
2016-05-30T02:21:07.501Z,0
2016-05-30T02:22:07.770Z,0
2016-05-30T02:23:07.584Z,0
2016-05-30T02:24:07.368Z,0
2016-05-30T02:25:07.528Z,0
2016-05-30T02:26:07.781Z,0
2016-05-30T02:27:07.798Z,0
2016-05-30T02:28:07.786Z,0
2016-05-30T02:29:07.836Z,0
2016-05-30T02:30:07.744Z,0
2016-05-30T02:31:07.841Z,0
2016-05-30T02:32:07.827Z,0
2016-05-30T02:33:07.862Z,0
2016-05-30T02:34:07.942Z,0
2016-05-30T02:35:08.117Z,0
2016-05-30T02:36:07.979Z,0
2016-05-30T02:37:08.732Z,0
2016-05-30T02:38:08.156Z,0
2016-05-30T02:39:08.296Z,0
2016-05-30T02:40:08.373Z,0
2016-05-30T02:41:07.965Z,0
2016-05-30T02:42:08.510Z,0
2016-05-30T02:43:08.572Z,0
2016-05-30T02:44:08.640Z,0
2016-05-30T02:45:08.684Z,0
2016-05-30T02:46:08.727Z,0
2016-05-30T02:47:08.770Z,0
2016-05-30T02:48:08.876Z,0
2016-05-30T02:49:08.902Z,0
2016-05-30T02:50:08.969Z,0
2016-05-30T02:51:09.039Z,0
2016-05-30T02:52:10.013Z,0
2016-05-30T02:53:09.082Z,0
2016-05-30T02:54:09.118Z,0
2016-05-30T02:55:09.200Z,5
2016-05-30T02:56:09.048Z,5
2016-05-30T02:57:09.318Z,5
2016-05-30T02:58:09.369Z,5
2016-05-30T02:59:09.387Z,5
2016-05-30T03:00:09.391Z,5
2016-05-30T03:01:09.458Z,5
2016-05-30T03:02:09.491Z,5
2016-05-30T03:03:09.354Z,10
2016-05-30T03:04:09.389Z,10
2016-05-30T03:05:09.610Z,10
2016-05-30T03:06:09.535Z,10
2016-05-30T03:07:10.568Z,10
2016-05-30T03:08:09.727Z,10
2016-05-30T03:09:09.762Z,10
2016-05-30T03:10:09.656Z,15
2016-05-30T03:11:09.845Z,15
2016-05-30T03:12:09.739Z,15
2016-05-30T03:13:09.959Z,15
2016-05-30T03:14:10.041Z,15
2016-05-30T03:15:10.044Z,15
2016-05-30T03:16:10.078Z,20
2016-05-30T03:17:10.142Z,20
2016-05-30T03:18:10.161Z,20
2016-05-30T03:19:10.194Z,20
2016-05-30T03:20:10.103Z,25
2016-05-30T03:21:10.216Z,25
2016-05-30T03:22:10.983Z,25
2016-05-30T03:23:10.361Z,30
2016-05-30T03:24:10.427Z,30
2016-05-30T03:25:10.461Z,30
2016-05-30T03:26:10.338Z,30
2016-05-30T03:27:10.543Z,30
2016-05-30T03:28:10.579Z,35
2016-05-30T03:29:10.471Z,35
2016-05-30T03:30:10.662Z,35
2016-05-30T03:31:10.695Z,35
2016-05-30T03:32:10.745Z,40
2016-05-30T03:33:10.779Z,40
2016-05-30T03:34:10.859Z,40
2016-05-30T03:35:10.597Z,40
2016-05-30T03:36:10.959Z,40
2016-05-30T03:37:12.103Z,45
2016-05-30T03:38:10.996Z,45
2016-05-30T03:39:11.077Z,45
2016-05-30T03:40:10.953Z,45
2016-05-30T03:41:10.973Z,50
2016-05-30T03:42:11.007Z,50
2016-05-30T03:43:11.259Z,50
2016-05-30T03:44:11.262Z,50
2016-05-30T03:45:11.296Z,55
2016-05-30T03:46:11.377Z,55
2016-05-30T03:47:11.473Z,60
2016-05-30T03:48:11.428Z,60
2016-05-30T03:49:11.478Z,65
2016-05-30T03:50:11.528Z,65
2016-05-30T03:51:11.594Z,70
2016-05-30T03:52:11.955Z,70
2016-05-30T03:53:11.349Z,70
2016-05-30T03:54:11.554Z,70
2016-05-30T03:55:11.604Z,70
2016-05-30T03:56:11.466Z,75
2016-05-30T03:57:11.891Z,75
2016-05-30T03:58:11.940Z,75
2016-05-30T03:59:11.740Z,75
2016-05-30T04:00:11.930Z,75
2016-05-30T04:01:12.057Z,75
2016-05-30T04:02:12.045Z,75
2016-05-30T04:03:12.093Z,75
2016-05-30T04:04:12.113Z,75
2016-05-30T04:05:12.021Z,80
2016-05-30T04:06:12.227Z,80
2016-05-30T04:07:12.433Z,80
2016-05-30T04:08:12.342Z,80
2016-05-30T04:09:12.345Z,80
2016-05-30T04:10:12.410Z,85
2016-05-30T04:11:11.945Z,85
2016-05-30T04:12:12.493Z,85
2016-05-30T04:13:12.355Z,85
2016-05-30T04:14:12.562Z,85
2016-05-30T04:15:12.564Z,85
2016-05-30T04:16:12.661Z,90
2016-05-30T04:17:12.570Z,90
2016-05-30T04:18:12.713Z,90
2016-05-30T04:19:12.762Z,90
2016-05-30T04:20:12.640Z,95
2016-05-30T04:21:12.846Z,95
2016-05-30T04:22:12.755Z,95
2016-05-30T04:23:12.648Z,95
2016-05-30T04:24:13.025Z,95
2016-05-30T04:25:13.013Z,95
2016-05-30T04:26:12.890Z,100
2016-05-30T04:27:13.158Z,100
2016-05-30T04:28:13.177Z,100
2016-05-30T04:29:12.898Z,100
2016-05-30T04:30:13.260Z,100
2016-05-30T04:31:13.310Z,100
2016-05-30T04:32:13.188Z,105
2016-05-30T04:33:13.393Z,105
2016-05-30T04:34:13.396Z,105
2016-05-30T04:35:13.461Z,110
2016-05-30T04:36:13.464Z,110
2016-05-30T04:37:14.358Z,115
2016-05-30T04:38:13.407Z,115
2016-05-30T04:39:13.597Z,120
2016-05-30T04:40:13.506Z,120
2016-05-30T04:41:13.775Z,120
2016-05-30T04:42:13.448Z,125
2016-05-30T04:43:13.640Z,125
2016-05-30T04:44:13.829Z,125
2016-05-30T04:45:13.925Z,130
2016-05-30T04:46:13.757Z,130
2016-05-30T04:47:15.962Z,130
2016-05-30T04:48:14.169Z,140
2016-05-30T04:49:14.468Z,135
2016-05-30T04:50:14.377Z,135
2016-05-30T04:51:14.317Z,135
2016-05-30T04:52:13.898Z,135
2016-05-30T04:53:14.244Z,140
2016-05-30T04:54:16.216Z,140
2016-05-30T04:55:14.297Z,140
2016-05-30T04:56:14.408Z,140
2016-05-30T04:57:15.161Z,140
2016-05-30T04:58:15.399Z,140
2016-05-30T04:59:14.463Z,145
2016-05-30T05:00:14.544Z,145
2016-05-30T05:01:14.563Z,145
2016-05-30T05:02:14.612Z,145
2016-05-30T05:03:14.537Z,145
2016-05-30T05:04:14.774Z,145
2016-05-30T05:05:14.745Z,150
2016-05-30T05:06:14.779Z,145
2016-05-30T05:07:15.720Z,145
2016-05-30T05:08:15.425Z,145
2016-05-30T05:09:15.006Z,150
2016-05-30T05:10:14.962Z,150
2016-05-30T05:11:15.011Z,150
2016-05-30T05:12:15.186Z,150
2016-05-30T05:13:14.954Z,150
2016-05-30T05:14:15.503Z,150
2016-05-30T05:15:15.787Z,155
2016-05-30T05:16:15.306Z,155
2016-05-30T05:17:15.247Z,150
2016-05-30T05:18:14.592Z,155
2016-05-30T05:19:15.377Z,155
2016-05-30T05:20:15.676Z,150
2016-05-30T05:21:15.461Z,150
2016-05-30T05:22:15.807Z,155
2016-05-30T05:23:15.481Z,155
2016-05-30T05:24:17.375Z,155
2016-05-30T05:25:15.283Z,155
2016-05-30T05:26:15.755Z,160
2016-05-30T05:27:15.774Z,160
2016-05-30T05:28:16.183Z,160
2016-05-30T05:29:15.794Z,165
2016-05-30T05:30:15.827Z,165
2016-05-30T05:31:15.831Z,165
2016-05-30T05:32:15.880Z,170
2016-05-30T05:33:15.930Z,170
2016-05-30T05:34:15.963Z,170
2016-05-30T05:35:15.857Z,170
2016-05-30T05:36:16.938Z,175
2016-05-30T05:37:16.315Z,175
2016-05-30T05:38:16.193Z,180
2016-05-30T05:39:15.868Z,180
2016-05-30T05:40:18.120Z,185
2016-05-30T05:41:16.312Z,185
2016-05-30T05:42:17.126Z,190
2016-05-30T05:43:16.457Z,190
2016-05-30T05:44:16.647Z,190
2016-05-30T05:45:17.103Z,195
2016-05-30T05:46:17.589Z,195
2016-05-30T05:47:16.484Z,205
2016-05-30T05:48:20.611Z,200
2016-05-30T05:49:20.426Z,205
2016-05-30T05:50:20.382Z,205
2016-05-30T05:51:20.525Z,210
2016-05-30T05:52:23.996Z,210
2016-05-30T05:53:20.358Z,210
2016-05-30T05:54:20.159Z,210
2016-05-30T05:55:20.895Z,210
2016-05-30T05:56:21.211Z,210
2016-05-30T05:57:20.510Z,215
2016-05-30T05:58:22.153Z,210
2016-05-30T05:59:21.313Z,210
2016-05-30T06:00:22.800Z,215
2016-05-30T06:01:20.708Z,210
2016-05-30T06:02:21.508Z,205
2016-05-30T06:03:20.355Z,210
2016-05-30T06:04:20.482Z,210
2016-05-30T06:05:19.219Z,215
2016-05-30T06:06:17.535Z,215
2016-05-30T06:07:17.521Z,235
2016-05-30T06:08:18.790Z,255
2016-05-30T06:09:17.496Z,265
2016-05-30T06:10:17.295Z,265
2016-05-30T06:11:19.923Z,265
2016-05-30T06:12:18.426Z,265
2016-05-30T06:13:18.693Z,265
2016-05-30T06:14:17.603Z,265
2016-05-30T06:15:20.043Z,260
2016-05-30T06:16:17.686Z,260
2016-05-30T06:17:17.689Z,260
2016-05-30T06:18:19.176Z,275
2016-05-30T06:19:17.944Z,285
2016-05-30T06:20:18.009Z,280
2016-05-30T06:21:18.247Z,275
2016-05-30T06:22:18.936Z,285
2016-05-30T06:23:20.330Z,285
2016-05-30T06:24:18.552Z,300
2016-05-30T06:25:18.179Z,325
2016-05-30T06:26:25.119Z,340
2016-05-30T06:27:18.310Z,340
2016-05-30T06:28:20.187Z,330
2016-05-30T06:29:18.080Z,325
2016-05-30T06:30:18.255Z,325
2016-05-30T06:31:18.788Z,320
2016-05-30T06:32:18.557Z,305
2016-05-30T06:33:18.466Z,280
2016-05-30T06:34:20.469Z,270
2016-05-30T06:35:24.300Z,250
2016-05-30T06:36:21.646Z,250
2016-05-30T06:37:20.274Z,245
2016-05-30T06:38:20.979Z,235
2016-05-30T06:39:18.701Z,230
2016-05-30T06:40:20.251Z,215
2016-05-30T06:41:18.784Z,190
2016-05-30T06:42:19.022Z,190
2016-05-30T06:43:18.884Z,185
2016-05-30T06:44:18.887Z,195
2016-05-30T06:45:19.795Z,200
2016-05-30T06:46:19.282Z,195
2016-05-30T06:47:19.895Z,170
2016-05-30T06:48:19.428Z,155
2016-05-30T06:49:19.198Z,165
2016-05-30T06:50:20.606Z,205
2016-05-30T06:51:19.327Z,265
2016-05-30T06:52:19.643Z,295
2016-05-30T06:53:19.614Z,275
2016-05-30T06:54:19.507Z,280
2016-05-30T06:55:23.620Z,300
2016-05-30T06:56:19.606Z,330
2016-05-30T06:57:19.156Z,375
2016-05-30T06:58:19.847Z,410
2016-05-30T06:59:19.849Z,400
2016-05-30T07:00:23.242Z,380
2016-05-30T07:01:19.838Z,370
2016-05-30T07:02:19.872Z,355
2016-05-30T07:03:19.516Z,325
2016-05-30T07:04:19.472Z,320
2016-05-30T07:05:20.022Z,315
2016-05-30T07:06:19.758Z,315
2016-05-30T07:07:20.980Z,335
2016-05-30T07:08:19.998Z,325
2016-05-30T07:09:20.594Z,320
2016-05-30T07:10:20.315Z,325
2016-05-30T07:11:20.163Z,325
2016-05-30T07:12:20.477Z,320
2016-05-30T07:13:20.292Z,320
2016-05-30T07:14:24.030Z,330
2016-05-30T07:15:20.314Z,330
2016-05-30T07:16:20.660Z,325
2016-05-30T07:17:21.101Z,320
2016-05-30T07:18:24.198Z,335
2016-05-30T07:19:20.621Z,360
2016-05-30T07:20:22.843Z,385
2016-05-30T07:21:20.892Z,395
2016-05-30T07:22:21.817Z,405
2016-05-30T07:23:21.117Z,415
2016-05-30T07:24:20.916Z,420
2016-05-30T07:25:23.825Z,420
2016-05-30T07:26:21.297Z,425
2016-05-30T07:27:21.034Z,425
2016-05-30T07:28:25.145Z,420
2016-05-30T07:29:20.945Z,425
2016-05-30T07:30:22.651Z,425
2016-05-30T07:31:21.278Z,430
2016-05-30T07:32:21.063Z,425
2016-05-30T07:33:21.143Z,430
2016-05-30T07:34:21.896Z,435
2016-05-30T07:35:21.414Z,450
2016-05-30T07:36:22.199Z,455
2016-05-30T07:37:21.716Z,455
2016-05-30T07:38:21.329Z,440
2016-05-30T07:39:21.628Z,450
2016-05-30T07:40:24.913Z,465
2016-05-30T07:41:21.634Z,480
2016-05-30T07:42:22.496Z,495
2016-05-30T07:43:21.592Z,470
2016-05-30T07:44:21.768Z,430
2016-05-30T07:45:21.879Z,405
2016-05-30T07:46:22.287Z,415
2016-05-30T07:47:22.384Z,420
2016-05-30T07:48:21.809Z,410
2016-05-30T07:49:22.390Z,385
2016-05-30T07:50:22.142Z,370
2016-05-30T07:51:22.614Z,380
2016-05-30T07:52:22.475Z,390
2016-05-30T07:53:22.087Z,415
2016-05-30T07:54:22.122Z,460
2016-05-30T07:55:22.984Z,490
2016-05-30T07:56:22.331Z,505
2016-05-30T07:57:22.317Z,495
2016-05-30T07:58:23.461Z,500
2016-05-30T07:59:22.447Z,495
2016-05-30T08:00:22.591Z,495
2016-05-30T08:01:23.156Z,490
2016-05-30T08:02:22.597Z,480
2016-05-30T08:03:22.614Z,475
2016-05-30T08:04:22.727Z,470
2016-05-30T08:05:22.730Z,475
2016-05-30T08:06:22.482Z,475
2016-05-30T08:07:24.016Z,485
2016-05-30T08:08:22.894Z,490
2016-05-30T08:09:22.928Z,485
2016-05-30T08:10:22.977Z,470
2016-05-30T08:11:22.886Z,455
2016-05-30T08:12:23.092Z,440
2016-05-30T08:13:23.688Z,445
2016-05-30T08:14:23.160Z,455
2016-05-30T08:15:23.054Z,465
2016-05-30T08:16:23.197Z,465
2016-05-30T08:17:23.840Z,470
2016-05-30T08:18:23.702Z,465
2016-05-30T08:19:23.267Z,470
2016-05-30T08:20:23.364Z,470
2016-05-30T08:21:23.851Z,455
2016-05-30T08:22:23.870Z,430
2016-05-30T08:23:24.716Z,395
2016-05-30T08:24:26.139Z,360
2016-05-30T08:25:23.517Z,340
2016-05-30T08:26:24.676Z,325
2016-05-30T08:27:23.929Z,325
2016-05-30T08:28:23.823Z,325
2016-05-30T08:29:30.497Z,330
2016-05-30T08:30:24.609Z,325
2016-05-30T08:31:24.830Z,325
2016-05-30T08:32:25.286Z,320
2016-05-30T08:33:25.867Z,315
2016-05-30T08:34:24.073Z,305
2016-05-30T08:35:24.044Z,305
2016-05-30T08:36:24.188Z,290
2016-05-30T08:37:25.988Z,280
2016-05-30T08:38:24.380Z,275
2016-05-30T08:39:24.524Z,260
2016-05-30T08:40:24.527Z,245
2016-05-30T08:41:24.405Z,235
2016-05-30T08:42:24.486Z,235
2016-05-30T08:43:24.346Z,240
2016-05-30T08:44:24.616Z,250
2016-05-30T08:45:24.696Z,255
2016-05-30T08:46:24.637Z,250
2016-05-30T08:47:24.701Z,245
2016-05-30T08:48:24.720Z,240
2016-05-30T08:49:24.848Z,235
2016-05-30T08:50:24.820Z,230
2016-05-30T08:51:26.041Z,225
2016-05-30T08:52:25.496Z,220
2016-05-30T08:53:25.280Z,215
2016-05-30T08:54:24.876Z,220
2016-05-30T08:55:26.411Z,220
2016-05-30T08:56:26.054Z,220
2016-05-30T08:57:25.135Z,220
2016-05-30T08:58:25.513Z,220
2016-05-30T08:59:25.265Z,220
2016-05-30T09:00:25.252Z,225
2016-05-30T09:01:25.661Z,240
2016-05-30T09:02:25.945Z,260
2016-05-30T09:03:26.901Z,295
2016-05-30T09:04:28.811Z,320
2016-05-30T09:05:28.297Z,340
2016-05-30T09:06:25.472Z,350
2016-05-30T09:07:26.615Z,350
2016-05-30T09:08:48.587Z,325
2016-05-30T09:09:26.605Z,310
2016-05-30T09:10:25.951Z,290
2016-05-30T09:11:25.969Z,285
2016-05-30T09:12:26.425Z,285
2016-05-30T09:13:25.897Z,285
2016-05-30T09:14:25.774Z,290
2016-05-30T09:15:25.777Z,295
2016-05-30T09:16:27.576Z,305
2016-05-30T09:17:26.626Z,320
2016-05-30T09:18:27.645Z,310
2016-05-30T09:19:27.132Z,295
2016-05-30T09:20:26.994Z,280
2016-05-30T09:21:27.168Z,270
2016-05-30T09:22:27.249Z,260
2016-05-30T09:23:30.767Z,255
2016-05-30T09:24:27.864Z,260
2016-05-30T09:25:26.960Z,255
2016-05-30T09:26:27.760Z,265
2016-05-30T09:27:28.200Z,280
2016-05-30T09:28:26.811Z,290
2016-05-30T09:29:26.565Z,300
2016-05-30T09:30:29.317Z,320
2016-05-30T09:31:26.742Z,335
2016-05-30T09:32:27.042Z,335
2016-05-30T09:33:26.639Z,340
2016-05-30T09:34:26.875Z,350
2016-05-30T09:35:26.909Z,350
2016-05-30T09:36:27.708Z,340
2016-05-30T09:37:28.884Z,320
2016-05-30T09:38:29.558Z,315
2016-05-30T09:39:27.076Z,315
2016-05-30T09:40:27.063Z,320
2016-05-30T09:41:28.128Z,330
2016-05-30T09:42:27.302Z,335
2016-05-30T09:43:27.213Z,340
2016-05-30T09:44:27.355Z,350
2016-05-30T09:45:27.310Z,365
2016-05-30T09:46:27.408Z,380
2016-05-30T09:47:27.629Z,405
2016-05-30T09:48:27.350Z,435
2016-05-30T09:49:27.650Z,450
2016-05-30T09:50:27.918Z,465
2016-05-30T09:51:27.827Z,475
2016-05-30T09:52:29.079Z,490
2016-05-30T09:53:27.473Z,500
2016-05-30T09:54:27.694Z,510
2016-05-30T09:55:27.869Z,520
2016-05-30T09:56:27.778Z,530
2016-05-30T09:57:27.859Z,545
2016-05-30T09:58:27.986Z,565
2016-05-30T09:59:27.645Z,565
2016-05-30T10:00:27.789Z,585
2016-05-30T10:01:28.261Z,605
2016-05-30T10:02:28.075Z,620
2016-05-30T10:03:28.094Z,630
2016-05-30T10:04:28.112Z,630
2016-05-30T10:05:28.193Z,640
2016-05-30T10:06:28.461Z,660
2016-05-30T10:07:28.573Z,680
2016-05-30T10:08:28.530Z,695
2016-05-30T10:09:28.454Z,710
2016-05-30T10:10:30.675Z,740
2016-05-30T10:11:28.491Z,780
2016-05-30T10:12:28.369Z,820
2016-05-30T10:13:28.558Z,850
2016-05-30T10:14:28.671Z,865
2016-05-30T10:15:28.642Z,855
2016-05-30T10:16:28.832Z,885
2016-05-30T10:17:28.741Z,835
2016-05-30T10:18:28.790Z,745
2016-05-30T10:19:28.824Z,630
2016-05-30T10:20:28.858Z,580
2016-05-30T10:21:29.626Z,545
2016-05-30T10:22:29.223Z,525
2016-05-30T10:23:29.538Z,530
2016-05-30T10:24:29.057Z,540
2016-05-30T10:25:29.059Z,560
2016-05-30T10:26:29.249Z,580
2016-05-30T10:27:29.206Z,650
2016-05-30T10:28:29.098Z,685
2016-05-30T10:29:29.304Z,685
2016-05-30T10:30:29.354Z,575
2016-05-30T10:31:29.387Z,620
2016-05-30T10:32:29.437Z,585
2016-05-30T10:33:29.534Z,640
2016-05-30T10:34:30.849Z,1025
2016-05-30T10:35:31.367Z,1970
2016-05-30T10:36:34.855Z,2885
2016-05-30T10:37:36.514Z,3150
2016-05-30T10:38:33.766Z,3245
2016-05-30T10:39:34.425Z,3230
2016-05-30T10:40:31.708Z,2500
2016-05-30T10:41:33.415Z,3270
2016-05-30T10:42:33.464Z,2590
2016-05-30T10:43:30.405Z,3530
2016-05-30T10:44:32.986Z,1445
2016-05-30T10:45:35.613Z,2745
2016-05-30T10:46:35.459Z,3030
2016-05-30T10:47:32.838Z,3570
2016-05-30T10:48:34.355Z,2260
2016-05-30T10:49:38.107Z,885
2016-05-30T10:50:35.767Z,970
2016-05-30T10:51:38.161Z,975
2016-05-30T10:52:32.632Z,810
2016-05-30T10:53:32.494Z,1030
2016-05-30T10:54:35.779Z,3125
2016-05-30T10:55:34.640Z,2330
2016-05-30T10:56:34.534Z,2515
2016-05-30T10:57:36.162Z,3290
2016-05-30T10:58:36.460Z,3240
2016-05-30T10:59:34.026Z,3215
2016-05-30T11:00:34.997Z,3195
2016-05-30T11:01:34.297Z,3200
2016-05-30T11:02:34.503Z,3240
2016-05-30T11:03:34.536Z,3210
2016-05-30T11:04:32.586Z,3215
2016-05-30T11:05:33.495Z,3250
2016-05-30T11:06:35.966Z,3110
2016-05-30T11:07:35.313Z,755
2016-05-30T11:08:37.550Z,680
2016-05-30T11:09:34.255Z,685
2016-05-30T11:10:35.289Z,2020
2016-05-30T11:11:34.995Z,3110
2016-05-30T11:12:32.920Z,1880
2016-05-30T11:13:32.204Z,3290
2016-05-30T11:14:32.238Z,2320
2016-05-30T11:15:34.725Z,3590
2016-05-30T11:16:33.680Z,3930
2016-05-30T11:17:34.777Z,3465
2016-05-30T11:18:33.796Z,835
2016-05-30T11:19:36.111Z,890
2016-05-30T11:20:32.488Z,740
2016-05-30T11:21:33.257Z,815
2016-05-30T11:22:32.869Z,925
2016-05-30T11:23:32.278Z,1070
2016-05-30T11:24:34.702Z,1125
2016-05-30T11:25:36.237Z,4270
2016-05-30T11:26:33.364Z,4385
2016-05-30T11:27:35.070Z,4495
2016-05-30T11:28:33.337Z,3855
2016-05-30T11:29:33.998Z,4295
2016-05-30T11:31:07.003Z,4420
2016-05-30T11:31:33.846Z,3530
2016-05-30T11:32:35.489Z,4405
2016-05-30T11:33:34.633Z,4350
2016-05-30T11:34:35.323Z,4240
2016-05-30T11:35:37.076Z,4240
2016-05-30T11:36:34.016Z,4300
2016-05-30T11:37:37.503Z,4240
2016-05-30T11:38:37.286Z,4165
2016-05-30T11:39:33.290Z,4175
2016-05-30T11:40:34.042Z,4145
2016-05-30T11:41:34.732Z,4170
2016-05-30T11:42:33.657Z,4175
2016-05-30T11:43:33.628Z,4155
2016-05-30T11:44:33.866Z,4185
2016-05-30T11:45:33.664Z,4270
2016-05-30T11:46:34.547Z,4200
2016-05-30T11:47:36.289Z,4180
2016-05-30T11:48:37.765Z,4210
2016-05-30T11:49:34.709Z,4170
2016-05-30T11:50:34.067Z,4130
2016-05-30T11:51:33.999Z,4105
2016-05-30T11:52:34.587Z,4105
2016-05-30T11:53:34.144Z,4005
2016-05-30T11:54:34.185Z,4130
2016-05-30T11:55:34.253Z,4125
2016-05-30T11:56:34.352Z,4150
2016-05-30T11:57:34.452Z,4080
2016-05-30T11:58:37.598Z,4050
2016-05-30T11:59:34.494Z,4055
2016-05-30T12:00:34.592Z,4030
2016-05-30T12:01:34.643Z,4045
2016-05-30T12:02:34.772Z,4070
2016-05-30T12:03:34.838Z,4095
2016-05-30T12:04:34.841Z,4060
2016-05-30T12:05:34.970Z,4095
2016-05-30T12:06:35.567Z,4090
2016-05-30T12:07:37.351Z,4090
2016-05-30T12:08:38.307Z,4050
2016-05-30T12:09:35.154Z,4005
2016-05-30T12:10:35.267Z,4005
2016-05-30T12:11:35.285Z,3975
2016-05-30T12:12:37.709Z,3995
2016-05-30T12:13:35.415Z,3990
2016-05-30T12:14:38.714Z,3975
2016-05-30T12:15:39.717Z,1485
2016-05-30T12:16:35.658Z,4105
2016-05-30T12:17:38.629Z,2795
2016-05-30T12:18:35.773Z,820
2016-05-30T12:19:37.134Z,4020
2016-05-30T12:20:38.997Z,2705
2016-05-30T12:21:38.953Z,700
2016-05-30T12:22:36.361Z,3935
2016-05-30T12:23:36.208Z,3840
2016-05-30T12:24:38.664Z,3810
2016-05-30T12:25:42.807Z,3785
2016-05-30T12:26:41.013Z,3930
2016-05-30T12:27:39.250Z,1005
2016-05-30T12:28:40.799Z,1975
2016-05-30T12:29:40.005Z,830
2016-05-30T12:30:38.696Z,3920
2016-05-30T12:31:40.667Z,3920
2016-05-30T12:32:42.357Z,3825
2016-05-30T12:33:43.797Z,3750
2016-05-30T12:34:40.190Z,3815
2016-05-30T12:35:40.849Z,3855
2016-05-30T12:36:41.462Z,3860
2016-05-30T12:37:39.652Z,3920
2016-05-30T12:38:38.982Z,3870
2016-05-30T12:39:40.251Z,3390
2016-05-30T12:40:39.879Z,3710
2016-05-30T12:41:39.959Z,3610
2016-05-30T12:42:40.884Z,3580
2016-05-30T12:43:50.902Z,3480
2016-05-30T12:44:39.124Z,3575
2016-05-30T12:45:38.251Z,3530
2016-05-30T12:46:37.520Z,3585
2016-05-30T12:47:38.178Z,3585
2016-05-30T12:48:40.245Z,3575
2016-05-30T12:49:40.840Z,3605
2016-05-30T12:50:40.546Z,3640
2016-05-30T12:51:41.111Z,3685
2016-05-30T12:52:39.536Z,3685
2016-05-30T12:53:41.679Z,3715
2016-05-30T12:54:38.306Z,3695
2016-05-30T12:55:42.106Z,3705
2016-05-30T12:56:41.531Z,3655
2016-05-30T12:57:40.034Z,3615
2016-05-30T12:58:42.614Z,3540
2016-05-30T12:59:43.320Z,3495
2016-05-30T13:00:44.463Z,3370
2016-05-30T13:01:41.435Z,3450
2016-05-30T13:02:41.610Z,3470
2016-05-30T13:03:41.846Z,3475
2016-05-30T13:04:41.802Z,3485
2016-05-30T13:05:39.211Z,3480
2016-05-30T13:06:39.308Z,3470
2016-05-30T13:07:39.171Z,3445
2016-05-30T13:08:40.235Z,3435
2016-05-30T13:09:40.410Z,3415
2016-05-30T13:10:40.632Z,3405
2016-05-30T13:11:40.696Z,3380
2016-05-30T13:12:39.965Z,3350
2016-05-30T13:13:40.795Z,3220
2016-05-30T13:14:41.642Z,3065
2016-05-30T13:15:40.738Z,3050
2016-05-30T13:16:41.303Z,3060
2016-05-30T13:17:39.478Z,3060
2016-05-30T13:18:41.418Z,3060
2016-05-30T13:19:39.842Z,3065
2016-05-30T13:20:43.267Z,3055
2016-05-30T13:21:40.629Z,3015
2016-05-30T13:22:39.695Z,2990
2016-05-30T13:23:40.103Z,2935
2016-05-30T13:24:42.794Z,2895
2016-05-30T13:25:41.953Z,2870
2016-05-30T13:26:40.517Z,2810
2016-05-30T13:27:40.286Z,2810
2016-05-30T13:28:39.758Z,2810
2016-05-30T13:29:40.338Z,2845
2016-05-30T13:30:40.435Z,2885
2016-05-30T13:31:41.453Z,2935
2016-05-30T13:32:42.143Z,2990
2016-05-30T13:33:42.334Z,3030
2016-05-30T13:34:41.211Z,3075
2016-05-30T13:35:40.526Z,3095
2016-05-30T13:36:43.499Z,3090
2016-05-30T13:37:41.782Z,3060
2016-05-30T13:38:40.629Z,2995
2016-05-30T13:39:42.850Z,2930
2016-05-30T13:40:40.993Z,2885
2016-05-30T13:41:42.058Z,2465
2016-05-30T13:42:41.140Z,2870
2016-05-30T13:43:42.313Z,2885
2016-05-30T13:44:41.191Z,2920
2016-05-30T13:45:44.569Z,2910
2016-05-30T13:46:43.071Z,2900
2016-05-30T13:47:41.731Z,2905
2016-05-30T13:48:41.264Z,570
2016-05-30T13:49:41.362Z,670
2016-05-30T13:50:41.254Z,1630
2016-05-30T13:51:42.414Z,915
2016-05-30T13:52:44.228Z,2785
2016-05-30T13:53:42.294Z,2725
2016-05-30T13:54:44.218Z,2695
2016-05-30T13:55:41.940Z,2645